Time;durP1;ratioP1;P1;durP2;ratioP2;P2;SDS_P1;SDS_P2;PMS_P1;PMS_P2;Temp;Humidity;BMP_temperature;BMP_pressure;BME280_temperature;BME280_humidity;BME280_pressure;Samples;Min_cycle;Max_cycle;Signal;HPM_P1;HPM_P2
2022/11/29 00:01:12;;;;;;;253.35;29.00;;;7.70;99.90;;;;;;5133422;27;20043;-47
2022/11/29 00:03:37;;;;;;;139.75;23.45;;;7.70;99.90;;;;;;5133258;27;20039;-50
2022/11/29 00:06:13;;;;;;;198.40;23.58;;;8.50;99.90;;;;;;5133382;27;20031;-47
2022/11/29 00:08:40;;;;;;;131.70;22.10;;;8.20;99.90;;;;;;5133518;27;20412;-48
2022/11/29 00:11:08;;;;;;;127.20;22.83;;;8.30;99.90;;;;;;5133496;27;20039;-47
2022/11/29 00:13:34;;;;;;;211.82;27.25;;;7.70;99.90;;;;;;5132806;27;20031;-46
2022/11/29 00:16:11;;;;;;;232.48;28.15;;;7.90;99.90;;;;;;5133288;27;20031;-50
2022/11/29 00:18:36;;;;;;;194.05;25.92;;;7.60;99.90;;;;;;5114763;27;20088;-48
2022/11/29 00:21:07;;;;;;;187.27;25.85;;;8.30;99.90;;;;;;5133209;27;20158;-47
2022/11/29 00:23:33;;;;;;;194.10;25.50;;;7.70;99.90;;;;;;5132947;27;20079;-47
2022/11/29 00:26:06;;;;;;;328.52;30.95;;;8.40;99.90;;;;;;5132864;27;20039;-49
2022/11/29 00:28:32;;;;;;;255.05;27.48;;;8.20;99.90;;;;;;5130551;27;20038;-46
2022/11/29 00:30:58;;;;;;;209.25;26.85;;;7.70;99.90;;;;;;5132575;27;20058;-47
2022/11/29 00:33:24;;;;;;;296.08;29.08;;;8.40;99.90;;;;;;5132555;27;20031;-51
2022/11/29 00:35:49;;;;;;;186.40;25.13;;;8.00;99.90;;;;;;5133086;27;20127;-48
2022/11/29 00:38:15;;;;;;;101.63;20.45;;;7.90;99.90;;;;;;5132223;27;20545;-47
2022/11/29 00:40:41;;;;;;;141.55;23.13;;;7.80;99.90;;;;;;5132095;27;20091;-46
2022/11/29 00:43:06;;;;;;;142.82;23.58;;;8.30;99.90;;;;;;5132124;27;20039;-47
2022/11/29 00:45:32;;;;;;;191.00;23.38;;;7.80;99.90;;;;;;5132625;27;20053;-47
2022/11/29 00:47:58;;;;;;;179.80;25.98;;;7.70;99.90;;;;;;5114399;27;20100;-46
2022/11/29 00:50:23;;;;;;;127.00;22.17;;;8.00;99.90;;;;;;5132872;27;20042;-48
2022/11/29 00:52:49;;;;;;;179.63;25.48;;;8.00;99.90;;;;;;5132899;27;20035;-46
2022/11/29 00:55:15;;;;;;;126.50;22.45;;;7.60;99.90;;;;;;5132540;27;20063;-49
2022/11/29 00:57:41;;;;;;;178.18;23.58;;;8.20;99.90;;;;;;5132751;27;20414;-48
2022/11/29 01:00:07;;;;;;;102.80;20.92;;;7.60;99.90;;;;;;5132330;27;20410;-46
2022/11/29 01:02:33;;;;;;;128.80;22.95;;;7.90;99.90;;;;;;5132348;27;20452;-47
2022/11/29 01:04:58;;;;;;;115.05;21.88;;;8.30;99.90;;;;;;5132519;27;20032;-47
2022/11/29 01:07:24;;;;;;;228.63;25.77;;;7.90;99.90;;;;;;5132351;27;20405;-45
2022/11/29 01:09:50;;;;;;;116.72;21.30;;;8.10;99.90;;;;;;5132477;27;20523;-46
2022/11/29 01:12:15;;;;;;;204.40;24.45;;;7.70;99.90;;;;;;5132254;27;20089;-46
2022/11/29 01:14:42;;;;;;;148.20;23.48;;;8.20;99.90;;;;;;5129904;27;20114;-47
2022/11/29 01:17:07;;;;;;;133.85;23.02;;;7.90;99.90;;;;;;5113470;27;20104;-46
2022/11/29 01:19:35;;;;;;;185.68;23.35;;;8.40;99.90;;;;;;5113983;27;20035;-46
2022/11/29 01:22:01;;;;;;;155.48;23.65;;;7.80;99.90;;;;;;5096942;27;20505;-46
2022/11/29 01:24:28;;;;;;;149.05;21.20;;;8.20;99.90;;;;;;5132173;27;20054;-48
2022/11/29 01:26:54;;;;;;;134.50;22.70;;;8.00;99.90;;;;;;5132050;27;20167;-46
2022/11/29 01:29:19;;;;;;;130.75;20.48;;;8.10;99.90;;;;;;5131656;27;20126;-46
2022/11/29 01:31:45;;;;;;;133.95;20.27;;;8.30;99.90;;;;;;5131581;27;20518;-49
2022/11/29 01:34:11;;;;;;;147.20;20.23;;;8.20;99.90;;;;;;5131999;27;20039;-45
2022/11/29 01:36:37;;;;;;;146.68;20.08;;;7.50;99.90;;;;;;5131074;27;20038;-48
2022/11/29 01:39:04;;;;;;;142.32;22.30;;;7.80;99.90;;;;;;5131879;27;20461;-46
2022/11/29 01:41:32;;;;;;;125.57;19.83;;;7.60;99.90;;;;;;5130443;27;20423;-47
2022/11/29 01:44:00;;;;;;;128.07;19.73;;;8.00;99.90;;;;;;5112612;27;20042;-48
2022/11/29 01:46:28;;;;;;;93.45;20.55;;;7.70;99.90;;;;;;5131344;27;20103;-47
2022/11/29 01:49:00;;;;;;;158.80;20.75;;;7.70;99.90;;;;;;5131730;27;20035;-47
2022/11/29 01:51:28;;;;;;;86.45;19.05;;;8.20;99.90;;;;;;5131047;27;20039;-47
2022/11/29 01:53:54;;;;;;;128.32;20.30;;;8.20;99.90;;;;;;5131192;27;20035;-47
2022/11/29 01:56:21;;;;;;;177.90;21.10;;;8.20;99.90;;;;;;5131066;27;20110;-46
2022/11/29 01:58:47;;;;;;;155.70;20.17;;;8.00;99.90;;;;;;5129336;27;20046;-48
2022/11/29 02:01:13;;;;;;;129.63;18.42;;;8.10;99.90;;;;;;5112687;27;20502;-48
2022/11/29 02:03:39;;;;;;;137.30;18.88;;;7.70;99.90;;;;;;5131035;27;20095;-47
2022/11/29 02:06:06;;;;;;;102.60;18.08;;;8.00;99.90;;;;;;5131045;27;20096;-47
2022/11/29 02:08:37;;;;;;;154.45;18.48;;;7.60;99.90;;;;;;5130995;27;20082;-48
2022/11/29 02:11:12;;;;;;;122.47;16.63;;;7.80;99.90;;;;;;5130883;27;20110;-48
2022/11/29 02:13:56;;;;;;;121.82;17.85;;;8.10;99.90;;;;;;5130740;27;20138;-46
2022/11/29 02:16:35;;;;;;;151.77;19.17;;;7.90;99.90;;;;;;5131287;27;20374;-46
2022/11/29 02:19:34;;;;;;;125.20;17.17;;;7.90;99.90;;;;;;5130693;27;20042;-47
2022/11/29 02:22:31;;;;;;;167.95;20.13;;;7.40;99.90;;;;;;5130622;27;20035;-49
2022/11/29 02:25:12;;;;;;;211.10;21.20;;;7.40;99.90;;;;;;5129950;27;20064;-47
2022/11/29 02:28:08;;;;;;;102.68;18.30;;;8.00;99.90;;;;;;5130573;27;20043;-49
2022/11/29 02:31:10;;;;;;;108.78;18.63;;;8.10;99.90;;;;;;5130043;27;20443;-48
2022/11/29 02:34:17;;;;;;;143.43;19.30;;;7.40;99.90;;;;;;5129738;27;20035;-47
2022/11/29 02:37:05;;;;;;;176.10;20.10;;;8.00;99.90;;;;;;5130516;27;20031;-48
2022/11/29 02:40:11;;;;;;;86.63;17.77;;;7.30;99.90;;;;;;5130761;27;20070;-47
2022/11/29 02:43:09;;;;;;;91.72;16.85;;;7.60;99.90;;;;;;5095338;27;20050;-48
2022/11/29 02:45:53;;;;;;;121.13;17.27;;;7.40;99.90;;;;;;5130588;27;20118;-48
2022/11/29 02:48:40;;;;;;;88.80;16.42;;;7.80;99.90;;;;;;5129441;27;20050;-47
2022/11/29 02:51:16;;;;;;;138.13;18.05;;;7.40;99.90;;;;;;5111890;27;20086;-48
2022/11/29 02:53:51;;;;;;;82.97;15.40;;;7.90;99.90;;;;;;5130357;27;20038;-46
2022/11/29 02:56:43;;;;;;;106.70;16.60;;;7.80;99.90;;;;;;5130535;27;20122;-47
2022/11/29 02:59:26;;;;;;;76.78;14.98;;;7.70;99.90;;;;;;5130071;27;20078;-48
2022/11/29 03:02:17;;;;;;;64.60;15.52;;;7.40;99.90;;;;;;5129690;27;20126;-46
2022/11/29 03:05:02;;;;;;;57.13;15.15;;;7.20;99.90;;;;;;5111653;28;20162;-47
2022/11/29 03:07:47;;;;;;;56.63;14.82;;;7.20;99.90;;;;;;5129680;28;20118;-49
2022/11/29 03:10:32;;;;;;;73.25;15.32;;;7.80;99.90;;;;;;5111947;28;20474;-48
2022/11/29 03:12:58;;;;;;;66.97;15.82;;;7.60;99.90;;;;;;5130384;28;20039;-47
2022/11/29 03:15:57;;;;;;;65.07;15.52;;;7.70;99.90;;;;;;5129744;28;20036;-48
2022/11/29 03:18:50;;;;;;;72.68;17.73;;;7.40;99.90;;;;;;5129900;28;20031;-48
2022/11/29 03:21:40;;;;;;;53.15;15.60;;;7.20;99.90;;;;;;5129150;28;20045;-48
2022/11/29 03:24:28;;;;;;;77.82;16.95;;;7.70;99.90;;;;;;5111463;28;20039;-47
2022/11/29 03:27:08;;;;;;;63.03;14.63;;;7.30;99.90;;;;;;5130202;28;20111;-46
2022/11/29 03:29:55;;;;;;;78.15;15.18;;;7.40;99.90;;;;;;5108035;28;20122;-46
2022/11/29 03:32:29;;;;;;;76.78;14.52;;;7.60;99.90;;;;;;5130184;28;20467;-47
2022/11/29 03:35:19;;;;;;;97.50;15.35;;;7.40;99.90;;;;;;5130106;28;20031;-47
2022/11/29 03:37:54;;;;;;;89.10;16.48;;;7.80;99.90;;;;;;5130788;28;20474;-49
2022/11/29 03:40:40;;;;;;;87.47;14.93;;;7.70;99.90;;;;;;5111986;28;20050;-47
2022/11/29 03:43:12;;;;;;;97.32;15.65;;;7.70;99.90;;;;;;5111690;28;20398;-46
2022/11/29 03:45:54;;;;;;;103.70;15.85;;;7.30;99.90;;;;;;5110966;28;20042;-47
2022/11/29 03:48:30;;;;;;;65.18;14.57;;;7.40;99.90;;;;;;5111288;28;20047;-47
2022/11/29 03:51:03;;;;;;;133.95;16.90;;;7.00;99.90;;;;;;5129846;28;20426;-47
2022/11/29 03:54:11;;;;;;;57.67;15.68;;;7.60;99.90;;;;;;5111504;28;20506;-48
2022/11/29 03:56:39;;;;;;;56.83;15.10;;;7.60;99.90;;;;;;5128110;28;20051;-49
2022/11/29 03:59:25;;;;;;;79.10;16.67;;;7.60;99.90;;;;;;5128365;28;20530;-51
2022/11/29 04:02:20;;;;;;;126.68;17.10;;;7.50;99.90;;;;;;5130551;28;20126;-49
2022/11/29 04:04:51;;;;;;;95.32;16.10;;;6.90;99.90;;;;;;5090711;28;20047;-48
2022/11/29 04:07:32;;;;;;;124.55;17.63;;;7.60;99.90;;;;;;5111244;28;20538;-48
2022/11/29 04:10:28;;;;;;;82.82;17.13;;;7.20;99.90;;;;;;5129515;28;20440;-47
2022/11/29 04:13:05;;;;;;;90.88;15.57;;;7.00;99.90;;;;;;5129059;27;20032;-47
2022/11/29 04:15:43;;;;;;;93.78;15.75;;;7.70;99.90;;;;;;5133046;27;20039;-46
2022/11/29 04:18:20;;;;;;;96.88;16.10;;;7.50;99.90;;;;;;5114245;27;20130;-47
2022/11/29 04:21:12;;;;;;;96.25;17.70;;;7.60;99.90;;;;;;5132973;27;20062;-48
2022/11/29 04:23:50;;;;;;;116.15;18.60;;;7.20;99.90;;;;;;5132786;27;20185;-48
2022/11/29 04:26:37;;;;;;;140.38;20.25;;;7.80;99.90;;;;;;5133320;27;20039;-46
2022/11/29 04:29:24;;;;;;;164.07;20.70;;;7.50;99.90;;;;;;5133067;27;20050;-47
2022/11/29 04:32:09;;;;;;;120.05;18.52;;;7.00;99.90;;;;;;5132476;27;20103;-47
2022/11/29 04:34:49;;;;;;;122.93;16.92;;;7.60;99.90;;;;;;5132937;27;20038;-48
2022/11/29 04:37:36;;;;;;;186.57;19.60;;;7.60;99.90;;;;;;5133077;27;20083;-48
2022/11/29 04:40:17;;;;;;;130.90;18.23;;;7.50;99.90;;;;;;5132892;27;20467;-48
2022/11/29 04:43:03;;;;;;;109.88;17.77;;;7.00;99.90;;;;;;5133211;27;20045;-47
2022/11/29 04:45:58;;;;;;;120.50;19.48;;;7.10;99.90;;;;;;5132651;27;20042;-47
2022/11/29 04:48:54;;;;;;;237.35;22.23;;;7.50;99.90;;;;;;5133006;27;20078;-48
2022/11/29 04:51:38;;;;;;;136.15;21.33;;;7.60;99.90;;;;;;5113711;27;20051;-47
2022/11/29 04:54:24;;;;;;;227.32;22.13;;;7.10;99.90;;;;;;5113853;27;20042;-49
2022/11/29 04:57:08;;;;;;;172.73;21.25;;;7.50;99.90;;;;;;5131535;27;20031;-47
2022/11/29 04:59:58;;;;;;;130.85;21.30;;;7.40;99.90;;;;;;5129139;27;20121;-47
2022/11/29 05:02:47;;;;;;;179.93;22.58;;;7.10;99.90;;;;;;5131972;27;20035;-48
2022/11/29 05:05:31;;;;;;;192.20;20.30;;;7.30;99.90;;;;;;5132597;27;20046;-47
2022/11/29 05:08:00;;;;;;;223.90;21.63;;;7.20;99.90;;;;;;5131462;27;20043;-48
2022/11/29 05:10:37;;;;;;;201.70;19.80;;;7.00;99.90;;;;;;5131948;27;20086;-47
2022/11/29 05:13:18;;;;;;;185.75;19.70;;;7.10;99.90;;;;;;5131440;27;20039;-47
2022/11/29 05:16:25;;;;;;;172.93;17.63;;;7.60;99.90;;;;;;5131705;27;20119;-47
2022/11/29 05:19:34;;;;;;;167.57;20.05;;;7.60;99.90;;;;;;5028515;28;20040;-46
2022/11/29 05:22:23;;;;;;;159.75;19.88;;;7.50;99.90;;;;;;5083047;27;20051;-46
2022/11/29 05:25:22;;;;;;;157.90;17.95;;;7.00;99.90;;;;;;5131265;27;20076;-47
2022/11/29 05:28:07;;;;;;;153.90;17.52;;;7.10;99.90;;;;;;5132396;27;20092;-46
2022/11/29 05:31:12;;;;;;;200.38;19.65;;;7.30;99.90;;;;;;5131995;27;20167;-46
2022/11/29 05:33:43;;;;;;;267.27;20.92;;;6.90;99.90;;;;;;5131626;27;20054;-47
2022/11/29 05:36:42;;;;;;;133.00;17.52;;;7.30;99.90;;;;;;5131927;27;20389;-46
2022/11/29 05:39:39;;;;;;;236.13;19.63;;;7.40;99.90;;;;;;5132084;27;20493;-46
2022/11/29 05:42:23;;;;;;;190.57;17.88;;;6.80;99.90;;;;;;5130385;27;20035;-47
2022/11/29 05:45:39;;;;;;;258.05;20.30;;;6.90;99.90;;;;;;5109367;27;20386;-47
2022/11/29 05:48:16;;;;;;;203.57;17.90;;;7.50;99.90;;;;;;5035483;28;20040;-50
2022/11/29 05:51:09;;;;;;;158.07;17.00;;;6.80;99.90;;;;;;5128647;27;20122;-48
2022/11/29 05:53:57;;;;;;;149.93;16.77;;;7.40;99.90;;;;;;5130747;27;20031;-47
2022/11/29 05:56:48;;;;;;;274.80;20.83;;;7.10;99.90;;;;;;5131373;27;20387;-47
2022/11/29 05:59:25;;;;;;;193.80;16.98;;;6.80;99.90;;;;;;5129661;27;20043;-46
2022/11/29 06:02:14;;;;;;;227.30;17.85;;;7.60;99.90;;;;;;5130579;27;20174;-46
2022/11/29 06:04:49;;;;;;;325.50;20.33;;;6.90;99.90;;;;;;5130353;27;20123;-49
2022/11/29 06:07:40;;;;;;;112.65;15.70;;;6.80;99.90;;;;;;5131336;27;20475;-47
2022/11/29 06:10:18;;;;;;;175.15;17.60;;;6.80;99.90;;;;;;5112606;27;20066;-49
2022/11/29 06:13:13;;;;;;;238.55;20.48;;;7.30;99.90;;;;;;5131103;27;20031;-51
2022/11/29 06:16:01;;;;;;;212.60;19.13;;;7.50;99.90;;;;;;5130856;27;20050;-47
2022/11/29 06:19:05;;;;;;;198.30;19.23;;;6.80;99.90;;;;;;5129834;27;20114;-49
2022/11/29 06:21:46;;;;;;;235.43;21.40;;;6.80;99.90;;;;;;5093268;27;20092;-47
2022/11/29 06:24:24;;;;;;;216.05;19.42;;;7.10;99.90;;;;;;5130614;27;20653;-47
2022/11/29 06:27:07;;;;;;;90.85;15.98;;;6.80;99.90;;;;;;5129875;27;20042;-47
2022/11/29 06:30:01;;;;;;;141.43;17.42;;;6.70;99.90;;;;;;5127321;27;20046;-48
2022/11/29 06:32:50;;;;;;;131.95;17.58;;;7.40;99.90;;;;;;5130592;27;20043;-49
2022/11/29 06:35:44;;;;;;;146.57;17.45;;;6.80;99.90;;;;;;5130579;27;20434;-48
2022/11/29 06:38:17;;;;;;;247.90;20.45;;;7.30;99.90;;;;;;5130492;27;20107;-48
2022/11/29 06:40:43;;;;;;;218.27;20.05;;;6.60;99.90;;;;;;5112274;27;20031;-50
2022/11/29 06:43:09;;;;;;;200.02;19.55;;;6.70;99.90;;;;;;5130059;27;20047;-48
2022/11/29 06:45:35;;;;;;;142.18;17.73;;;6.70;99.90;;;;;;5111821;27;20046;-46
2022/11/29 06:48:07;;;;;;;158.55;18.58;;;7.00;99.90;;;;;;5130169;27;20386;-47
2022/11/29 06:50:49;;;;;;;164.88;17.73;;;6.80;99.90;;;;;;5129576;27;20089;-48
2022/11/29 06:53:32;;;;;;;163.60;18.25;;;6.80;99.90;;;;;;5129057;27;20039;-46
2022/11/29 06:56:14;;;;;;;120.25;15.50;;;7.00;99.90;;;;;;5130819;27;20459;-50
2022/11/29 06:59:05;;;;;;;145.80;16.60;;;7.40;99.90;;;;;;5130061;27;20043;-47
2022/11/29 07:02:03;;;;;;;137.63;16.58;;;6.80;99.90;;;;;;5130383;27;20114;-49
2022/11/29 07:05:01;;;;;;;140.20;16.80;;;6.70;99.90;;;;;;5125348;27;20078;-46
2022/11/29 07:07:32;;;;;;;148.30;16.60;;;6.90;99.90;;;;;;5129269;28;20191;-47
2022/11/29 07:10:00;;;;;;;165.23;17.15;;;7.00;99.90;;;;;;5130638;28;20411;-47
2022/11/29 07:12:26;;;;;;;181.70;18.13;;;6.80;99.90;;;;;;5130241;28;20091;-46
2022/11/29 07:14:52;;;;;;;152.65;16.95;;;7.00;99.90;;;;;;5109359;28;20486;-49
2022/11/29 07:17:21;;;;;;;160.45;17.33;;;6.70;99.90;;;;;;5130040;28;20046;-46
2022/11/29 07:19:55;;;;;;;131.27;16.38;;;7.30;99.90;;;;;;5130193;28;20051;-46
2022/11/29 07:22:46;;;;;;;135.13;17.60;;;6.60;99.90;;;;;;5130068;28;20043;-47
2022/11/29 07:25:14;;;;;;;137.73;17.45;;;6.70;99.90;;;;;;5129156;28;20053;-47
2022/11/29 07:27:46;;;;;;;118.65;16.70;;;7.10;99.90;;;;;;5129856;28;20056;-48
2022/11/29 07:30:14;;;;;;;97.60;16.42;;;7.00;99.90;;;;;;5129923;28;20494;-47
2022/11/29 07:33:00;;;;;;;204.95;19.92;;;6.60;99.90;;;;;;5130886;28;20035;-47
2022/11/29 07:35:29;;;;;;;197.93;17.98;;;7.30;99.90;;;;;;5130641;28;20035;-47
2022/11/29 07:38:17;;;;;;;134.57;15.77;;;6.60;99.90;;;;;;5129650;28;20035;-50
2022/11/29 07:40:58;;;;;;;149.13;16.25;;;7.30;99.90;;;;;;5129969;28;20059;-48
2022/11/29 07:43:43;;;;;;;129.63;14.25;;;6.60;99.90;;;;;;5130144;28;20071;-48
2022/11/29 07:46:09;;;;;;;119.68;15.43;;;7.20;99.90;;;;;;5127656;28;20122;-47
2022/11/29 07:48:34;;;;;;;95.45;15.13;;;7.10;99.90;;;;;;5131072;27;20118;-47
2022/11/29 07:51:01;;;;;;;113.20;14.68;;;7.30;99.90;;;;;;5115573;27;20035;-47
2022/11/29 07:53:29;;;;;;;117.55;14.98;;;7.20;99.90;;;;;;5121081;27;20062;-48
2022/11/29 07:55:56;;;;;;;100.45;14.27;;;6.60;99.90;;;;;;5122676;27;20031;-46
2022/11/29 07:58:21;;;;;;;140.10;16.27;;;7.20;99.90;;;;;;5121419;27;20040;-48
2022/11/29 08:00:47;;;;;;;115.07;14.27;;;7.20;99.90;;;;;;5123554;27;20035;-48
2022/11/29 08:03:13;;;;;;;128.20;14.15;;;7.10;99.90;;;;;;5123464;27;20038;-46
2022/11/29 08:05:39;;;;;;;80.13;11.57;;;6.80;99.90;;;;;;5124718;27;20039;-48
2022/11/29 08:08:05;;;;;;;114.22;13.40;;;6.40;99.90;;;;;;5125301;27;20032;-47
2022/11/29 08:10:31;;;;;;;85.05;13.68;;;6.40;99.90;;;;;;5124879;27;20100;-50
2022/11/29 08:12:57;;;;;;;76.03;11.80;;;7.10;99.90;;;;;;5124137;27;20035;-48
2022/11/29 08:15:24;;;;;;;80.55;12.38;;;6.50;99.90;;;;;;5105257;27;20546;-47
2022/11/29 08:17:51;;;;;;;81.88;12.80;;;6.50;99.90;;;;;;5121215;27;20150;-50
2022/11/29 08:20:18;;;;;;;76.95;12.48;;;6.40;99.90;;;;;;5123161;27;20537;-47
2022/11/29 08:22:44;;;;;;;116.97;13.88;;;6.90;99.90;;;;;;5123864;27;20042;-47
2022/11/29 08:25:10;;;;;;;81.18;12.63;;;7.20;99.90;;;;;;5123246;27;23601;-47
2022/11/29 08:27:38;;;;;;;87.03;13.40;;;6.60;99.90;;;;;;5122430;27;20228;-47
2022/11/29 08:30:05;;;;;;;115.70;14.82;;;7.40;99.90;;;;;;5123000;27;20032;-48
2022/11/29 08:32:32;;;;;;;101.53;14.68;;;7.00;99.90;;;;;;5123212;27;20045;-47
2022/11/29 08:34:58;;;;;;;71.55;12.60;;;7.00;99.90;;;;;;5123121;27;20091;-51
2022/11/29 08:37:23;;;;;;;127.75;13.65;;;6.50;99.90;;;;;;5123550;27;20034;-49
2022/11/29 08:39:49;;;;;;;102.93;13.80;;;6.80;99.90;;;;;;5122658;27;20059;-50
2022/11/29 08:42:15;;;;;;;105.85;13.00;;;7.00;99.90;;;;;;5124088;27;20034;-48
2022/11/29 08:44:40;;;;;;;104.97;12.65;;;7.10;99.90;;;;;;5122999;27;20478;-46
2022/11/29 08:50:01;;;;;;;70.55;11.95;;;7.10;99.90;;;;;;5123396;27;20152;-48
2022/11/29 08:55:25;;;;;;;92.70;11.85;;;6.60;99.90;;;;;;5123481;27;20086;-47
2022/11/29 08:57:51;;;;;;;76.70;10.93;;;6.50;99.90;;;;;;5122366;27;20402;-48
2022/11/29 09:00:20;;;;;;;85.50;11.85;;;7.00;99.90;;;;;;5120977;27;20039;-46
2022/11/29 09:02:46;;;;;;;93.47;13.88;;;6.40;99.90;;;;;;5122117;27;20473;-49
2022/11/29 09:05:13;;;;;;;103.32;13.00;;;6.50;99.90;;;;;;5120120;27;20044;-47
2022/11/29 09:07:39;;;;;;;97.53;13.07;;;6.80;99.90;;;;;;5099630;27;20474;-47
2022/11/29 09:10:07;;;;;;;123.22;13.77;;;6.90;99.90;;;;;;5120199;27;20039;-46
2022/11/29 09:12:34;;;;;;;98.47;13.98;;;6.70;99.90;;;;;;5119181;27;20042;-46
2022/11/29 09:15:00;;;;;;;112.18;14.23;;;7.10;99.90;;;;;;5119994;27;20083;-51
2022/11/29 09:17:26;;;;;;;117.47;16.02;;;6.50;99.90;;;;;;5118258;27;20031;-47
2022/11/29 09:19:52;;;;;;;126.88;16.10;;;6.50;99.90;;;;;;5102043;27;20432;-48
2022/11/29 09:22:17;;;;;;;155.38;16.85;;;7.20;99.90;;;;;;5122457;27;20122;-46
2022/11/29 09:24:45;;;;;;;111.88;17.70;;;7.30;99.90;;;;;;5119284;27;20078;-47
2022/11/29 09:27:10;;;;;;;108.97;18.65;;;7.00;99.90;;;;;;5103045;27;20050;-49
2022/11/29 09:29:36;;;;;;;72.75;17.10;;;7.40;99.90;;;;;;5121742;27;20125;-47
2022/11/29 09:32:02;;;;;;;78.85;16.27;;;7.00;99.90;;;;;;5120301;27;20389;-46
2022/11/29 09:34:28;;;;;;;85.35;17.13;;;7.40;99.90;;;;;;5084702;27;20122;-46
2022/11/29 09:36:53;;;;;;;55.75;14.95;;;7.00;99.90;;;;;;5121334;27;20666;-46
2022/11/29 09:39:19;;;;;;;100.28;16.13;;;7.30;99.90;;;;;;5117251;27;20063;-47
2022/11/29 09:42:04;;;;;;;111.60;17.38;;;7.40;99.90;;;;;;5120648;27;20064;-47
2022/11/29 09:44:36;;;;;;;109.43;18.33;;;7.50;99.90;;;;;;5121681;27;20042;-46
2022/11/29 09:47:33;;;;;;;92.80;17.98;;;7.00;99.90;;;;;;5117785;27;20731;-47
2022/11/29 09:50:24;;;;;;;61.30;16.40;;;6.90;99.90;;;;;;5102076;27;20050;-47
2022/11/29 09:53:17;;;;;;;63.83;17.02;;;7.30;99.90;;;;;;5120888;27;20036;-49
2022/11/29 09:55:54;;;;;;;66.55;15.73;;;7.50;99.90;;;;;;5095237;27;20588;-48
2022/11/29 09:58:25;;;;;;;111.57;17.88;;;6.90;99.90;;;;;;5106393;27;21788;-48
2022/11/29 10:00:59;;;;;;;73.38;16.90;;;7.70;99.90;;;;;;5097847;27;20039;-49
2022/11/29 10:03:41;;;;;;;74.35;15.82;;;7.10;99.90;;;;;;5114247;27;20035;-47
2022/11/29 10:06:23;;;;;;;92.03;16.50;;;7.00;99.90;;;;;;5119813;27;20035;-48
2022/11/29 10:09:14;;;;;;;67.38;14.85;;;7.50;99.90;;;;;;5119751;27;20367;-48
2022/11/29 10:11:53;;;;;;;109.18;16.45;;;7.00;99.90;;;;;;5083078;27;20466;-46
2022/11/29 10:14:23;;;;;;;131.18;17.90;;;7.00;99.90;;;;;;5118151;27;20035;-48
2022/11/29 10:16:58;;;;;;;84.53;16.23;;;6.90;99.90;;;;;;5119026;27;20088;-47
2022/11/29 10:19:32;;;;;;;130.20;17.63;;;7.60;99.90;;;;;;5117890;27;20039;-48
2022/11/29 10:22:17;;;;;;;104.35;17.17;;;7.10;99.90;;;;;;5119952;27;20039;-46
2022/11/29 10:24:48;;;;;;;77.22;15.68;;;7.10;99.90;;;;;;5118118;27;20600;-50
2022/11/29 10:27:19;;;;;;;85.03;17.20;;;7.40;99.90;;;;;;5100175;27;20077;-46
2022/11/29 10:29:49;;;;;;;106.53;18.05;;;7.20;99.90;;;;;;5104484;27;20114;-48
2022/11/29 10:32:15;;;;;;;92.88;17.27;;;7.80;99.90;;;;;;5103201;27;20786;-49
2022/11/29 10:34:42;;;;;;;126.53;18.45;;;7.60;99.90;;;;;;5112102;27;20995;-47
2022/11/29 10:37:15;;;;;;;98.88;17.20;;;7.70;99.90;;;;;;5118545;27;20035;-47
2022/11/29 10:39:46;;;;;;;47.40;16.67;;;7.80;99.90;;;;;;5097770;27;20037;-49
2022/11/29 10:45:01;;;;;;;34.03;16.25;;;8.00;99.90;;;;;;5113063;27;20459;-49
2022/11/29 10:47:27;;;;;;;44.55;17.25;;;7.40;99.90;;;;;;5114786;27;20039;-47
2022/11/29 10:49:53;;;;;;;50.92;18.38;;;7.60;99.90;;;;;;5121172;27;20031;-47
2022/11/29 10:52:21;;;;;;;44.67;16.98;;;7.70;99.90;;;;;;5120974;27;20031;-48
2022/11/29 10:54:50;;;;;;;41.45;17.77;;;7.50;99.90;;;;;;5120801;27;20113;-47
2022/11/29 10:57:19;;;;;;;41.53;16.33;;;8.20;99.90;;;;;;5119264;27;20042;-48
2022/11/29 11:00:09;;;;;;;36.47;15.75;;;8.20;99.90;;;;;;5119931;27;20038;-48
2022/11/29 11:02:36;;;;;;;37.17;16.58;;;8.00;99.90;;;;;;5100612;27;20050;-46
2022/11/29 11:05:10;;;;;;;36.80;16.98;;;8.30;99.90;;;;;;5118936;27;21178;-46
2022/11/29 11:07:35;;;;;;;38.55;17.10;;;7.70;99.90;;;;;;5118606;27;20035;-47
2022/11/29 11:10:16;;;;;;;35.95;16.50;;;7.80;99.90;;;;;;5118217;28;20084;-47
2022/11/29 11:13:06;;;;;;;37.22;16.75;;;8.40;99.90;;;;;;5119037;28;20039;-46
2022/11/29 11:15:32;;;;;;;41.70;17.58;;;8.30;99.90;;;;;;5098462;28;20760;-47
2022/11/29 11:18:03;;;;;;;43.00;16.75;;;7.90;99.90;;;;;;5120835;28;20046;-48
2022/11/29 11:20:31;;;;;;;35.08;16.00;;;7.90;99.90;;;;;;5121138;28;20426;-47
2022/11/29 11:23:03;;;;;;;32.95;15.40;;;7.80;99.90;;;;;;5119062;27;20443;-48
2022/11/29 11:25:38;;;;;;;36.63;16.60;;;8.40;99.90;;;;;;5122818;27;20327;-45
2022/11/29 11:28:21;;;;;;;31.52;15.77;;;8.60;99.90;;;;;;5124437;27;20066;-47
2022/11/29 11:30:50;;;;;;;35.67;16.10;;;8.50;99.90;;;;;;5122462;27;20227;-46
2022/11/29 11:33:20;;;;;;;31.05;14.57;;;8.50;99.90;;;;;;5124123;27;20070;-46
2022/11/29 11:36:13;;;;;;;27.75;14.05;;;8.20;99.90;;;;;;5124282;27;20035;-47
2022/11/29 11:39:08;;;;;;;33.60;13.90;;;8.60;99.90;;;;;;5122727;27;20050;-49
2022/11/29 11:44:38;;;;;;;29.10;14.50;;;7.80;99.90;;;;;;5123393;27;20672;-47
2022/11/29 11:47:17;;;;;;;32.50;14.82;;;8.30;99.90;;;;;;5119301;27;20367;-49
2022/11/29 11:50:12;;;;;;;31.40;14.65;;;8.00;99.90;;;;;;5122496;27;20077;-47
2022/11/29 11:52:55;;;;;;;;;;;8.10;99.90;;;;;;5095980;27;20035;-50
2022/11/29 11:55:21;;;;;;;32.20;14.15;;;8.80;99.90;;;;;;5103764;27;19923;-47
2022/11/29 11:58:13;;;;;;;32.20;15.27;;;8.20;99.90;;;;;;5123309;27;20035;-48
2022/11/29 12:01:19;;;;;;;31.10;14.73;;;8.10;99.90;;;;;;5120892;27;20087;-48
2022/11/29 12:03:57;;;;;;;26.40;13.63;;;8.70;99.90;;;;;;5101975;27;20050;-46
2022/11/29 12:06:38;;;;;;;28.40;14.68;;;8.70;99.90;;;;;;5116668;27;20500;-46
2022/11/29 12:09:18;;;;;;;30.52;14.85;;;8.70;99.90;;;;;;5117805;27;20035;-47
2022/11/29 12:11:48;;;;;;;28.60;15.27;;;8.00;99.90;;;;;;5116774;27;20038;-47
2022/11/29 12:14:35;;;;;;;30.20;14.52;;;8.60;99.90;;;;;;5116652;27;21218;-46
2022/11/29 12:17:25;;;;;;;28.77;15.18;;;8.60;99.90;;;;;;5116499;27;20036;-49
2022/11/29 12:20:20;;;;;;;29.50;15.50;;;8.10;99.90;;;;;;5117446;27;20043;-47
2022/11/29 12:22:52;;;;;;;27.95;14.88;;;8.70;99.90;;;;;;5121105;27;20027;-46
2022/11/29 12:25:25;;;;;;;34.35;16.52;;;8.00;99.90;;;;;;5121135;27;20494;-48
2022/11/29 12:27:51;;;;;;;33.17;16.33;;;8.30;99.90;;;;;;5119420;27;20039;-46
2022/11/29 12:30:18;;;;;;;33.60;15.30;;;8.10;99.90;;;;;;5119626;27;20330;-48
2022/11/29 12:32:55;;;;;;;36.25;16.95;;;8.80;99.90;;;;;;5119456;27;20055;-47
2022/11/29 12:35:39;;;;;;;36.78;16.25;;;8.80;99.90;;;;;;5122038;27;20027;-48
2022/11/29 12:38:20;;;;;;;39.70;16.83;;;8.50;99.90;;;;;;5122847;27;20099;-47
2022/11/29 12:40:51;;;;;;;32.90;17.08;;;8.50;99.90;;;;;;5122874;27;20039;-47
2022/11/29 12:43:30;;;;;;;30.95;17.00;;;8.00;99.90;;;;;;5122416;27;20043;-45
2022/11/29 12:46:14;;;;;;;36.03;16.27;;;8.20;99.90;;;;;;5120479;27;20446;-46
2022/11/29 12:48:59;;;;;;;30.17;15.43;;;8.10;99.90;;;;;;5104774;27;20050;-46
2022/11/29 12:51:38;;;;;;;33.92;15.60;;;8.70;99.90;;;;;;5122271;27;20061;-48
2022/11/29 12:54:23;;;;;;;30.85;15.93;;;8.00;99.90;;;;;;5122934;27;20042;-47
2022/11/29 12:57:29;;;;;;;43.78;17.85;;;8.20;99.90;;;;;;5104469;27;20380;-46
2022/11/29 13:00:04;;;;;;;40.92;18.42;;;8.60;99.90;;;;;;5122909;27;20067;-49
2022/11/29 13:02:47;;;;;;;41.05;17.48;;;8.60;99.90;;;;;;5122768;27;20454;-51
2022/11/29 13:05:33;;;;;;;35.05;17.05;;;8.20;99.90;;;;;;5122303;27;20106;-47
2022/11/29 13:08:21;;;;;;;39.28;18.98;;;8.20;99.90;;;;;;5121727;27;20036;-47
2022/11/29 13:11:08;;;;;;;39.42;17.90;;;8.80;99.90;;;;;;5120858;27;20126;-48
2022/11/29 13:13:41;;;;;;;39.70;17.60;;;8.80;99.90;;;;;;5122842;27;20904;-47
2022/11/29 13:16:22;;;;;;;39.60;18.05;;;8.30;99.90;;;;;;5119951;27;20038;-48
2022/11/29 13:19:11;;;;;;;40.22;18.95;;;8.90;99.90;;;;;;5121184;27;20039;-46
2022/11/29 13:22:13;;;;;;;42.90;18.45;;;8.80;99.90;;;;;;5122362;27;20054;-49
2022/11/29 13:24:41;;;;;;;39.60;18.05;;;8.80;99.90;;;;;;5122751;27;20064;-47
2022/11/29 13:27:18;;;;;;;38.88;17.35;;;8.90;99.90;;;;;;5120238;27;20076;-47
2022/11/29 13:29:45;;;;;;;42.85;17.90;;;8.90;99.90;;;;;;5121727;27;20391;-49
2022/11/29 13:32:47;;;;;;;42.60;17.40;;;9.00;99.90;;;;;;5121728;27;20138;-49